Terminal Aerodrome Forecast
Issued by NWS

Current Version | Previous Version | Text Only | Print | Product List | Glossary Off
Versions: 1 2 3 4 5 6 7 8 9 10 11 12 13 14 15 16 17 18 19 20 21 22

000
FTUS41 KRLX 231100
TAFCKB
TAF
KCKB 231120Z 2312/2412 16004KT P6SM SCT035
     FM240000 15010G17KT 6SM BR BKN080
     FM240200 14012G20KT 2SM -RA BR OVC080
     FM240600 15012G17KT 5SM -SHRA BR OVC050
     FM240800 19013KT 6SM BR BKN030
     FM240900 20013KT P6SM BKN020
     FM241100 18009KT P6SM BKN150=

USA.gov is the U.S. government's official web portal to all federal, state and local government web resources and services.